Time;durP1;ratioP1;P1;durP2;ratioP2;P2;SDS_P1;SDS_P2;PMS_P1;PMS_P2;Temp;Humidity;BMP_temperature;BMP_pressure;BME280_temperature;BME280_humidity;BME280_pressure;Samples;Min_cycle;Max_cycle;Signal;HPM_P1;HPM_P2
2023/03/07 00:00:11;;;;;;;0.20;0.20;;;;;;;;;;4812783;29;20058;-77
2023/03/07 00:02:41;;;;;;;0.20;0.20;;;;;;;;;;4812346;29;20098;-77
2023/03/07 00:05:07;;;;;;;0.20;0.20;;;;;;;;;;4811501;29;20503;-78
2023/03/07 00:07:34;;;;;;;0.20;0.20;;;;;;;;;;4795680;29;20054;-77
2023/03/07 00:10:00;;;;;;;0.20;0.20;;;;;;;;;;4795769;29;20050;-77
2023/03/07 00:12:26;;;;;;;0.20;0.20;;;;;;;;;;4797701;29;20050;-77
2023/03/07 00:14:55;;;;;;;0.20;0.20;;;;;;;;;;4792965;29;20900;-77
2023/03/07 00:17:27;;;;;;;0.20;0.20;;;;;;;;;;4814015;29;20448;-77
2023/03/07 00:19:53;;;;;;;0.20;0.20;;;;;;;;;;4808501;29;20063;-77
2023/03/07 00:22:19;;;;;;;0.20;0.20;;;;;;;;;;4788045;29;20065;-77
2023/03/07 00:24:47;;;;;;;0.20;0.20;;;;;;;;;;4811630;29;20244;-76
2023/03/07 00:27:13;;;;;;;0.20;0.20;;;;;;;;;;4829504;29;20039;-76
2023/03/07 00:29:40;;;;;;;0.20;0.20;;;;;;;;;;4804344;29;20043;-77
2023/03/07 00:32:06;;;;;;;0.20;0.20;;;;;;;;;;4785626;29;20055;-77
2023/03/07 00:34:32;;;;;;;0.20;0.20;;;;;;;;;;4800765;29;20765;-78
2023/03/07 00:36:58;;;;;;;0.20;0.20;;;;;;;;;;4796297;29;20058;-77
2023/03/07 00:39:25;;;;;;;0.20;0.20;;;;;;;;;;4790976;29;20050;-76
2023/03/07 00:41:51;;;;;;;0.10;0.10;;;;;;;;;;4794849;29;20077;-76
2023/03/07 00:44:17;;;;;;;0.20;0.20;;;;;;;;;;4795323;29;20054;-76
2023/03/07 00:46:43;;;;;;;0.20;0.20;;;;;;;;;;4794130;29;20062;-76
2023/03/07 00:49:09;;;;;;;0.20;0.20;;;;;;;;;;4795198;29;20046;-77
2023/03/07 00:51:35;;;;;;;0.13;0.13;;;;;;;;;;4792332;29;20062;-77
2023/03/07 00:54:01;;;;;;;0.20;0.20;;;;;;;;;;4794332;29;20388;-76
2023/03/07 00:56:27;;;;;;;0.20;0.20;;;;;;;;;;4799885;29;20086;-77
2023/03/07 00:58:53;;;;;;;0.20;0.20;;;;;;;;;;4829010;29;20492;-76
2023/03/07 01:01:21;;;;;;;0.20;0.20;;;;;;;;;;4811845;29;20066;-76
2023/03/07 01:03:48;;;;;;;0.20;0.20;;;;;;;;;;4810681;29;20500;-77
2023/03/07 01:06:16;;;;;;;0.20;0.20;;;;;;;;;;4793435;29;20500;-75
2023/03/07 01:08:43;;;;;;;0.20;0.20;;;;;;;;;;4795124;29;20046;-77
2023/03/07 01:11:10;;;;;;;0.20;0.20;;;;;;;;;;4809049;29;20061;-77
2023/03/07 01:13:40;;;;;;;0.20;0.20;;;;;;;;;;4799712;29;20057;-76
2023/03/07 01:16:15;;;;;;;0.20;0.20;;;;;;;;;;4804242;29;20610;-77
2023/03/07 01:18:51;;;;;;;0.10;0.10;;;;;;;;;;4800783;29;20054;-76
2023/03/07 01:21:26;;;;;;;0.20;0.20;;;;;;;;;;4779676;29;20078;-76
2023/03/07 01:23:53;;;;;;;0.20;0.20;;;;;;;;;;4793921;29;20143;-76
2023/03/07 01:26:23;;;;;;;0.20;0.20;;;;;;;;;;4792687;29;20054;-76
2023/03/07 01:28:50;;;;;;;0.20;0.20;;;;;;;;;;4818222;29;20083;-76
2023/03/07 01:31:16;;;;;;;0.20;0.20;;;;;;;;;;4793122;29;20149;-76
2023/03/07 01:33:42;;;;;;;0.20;0.20;;;;;;;;;;4778646;29;20055;-76
2023/03/07 01:36:19;;;;;;;0.20;0.20;;;;;;;;;;4792696;29;20102;-76
2023/03/07 01:38:46;;;;;;;0.20;0.20;;;;;;;;;;4811027;29;20054;-77
2023/03/07 01:41:13;;;;;;;0.20;0.20;;;;;;;;;;4793060;29;20568;-75
2023/03/07 01:43:39;;;;;;;0.20;0.20;;;;;;;;;;4809858;29;20508;-76
2023/03/07 01:46:20;;;;;;;0.10;0.10;;;;;;;;;;4781776;29;20050;-76
2023/03/07 01:49:09;;;;;;;0.20;0.20;;;;;;;;;;4792566;29;20130;-76
2023/03/07 01:51:37;;;;;;;0.20;0.20;;;;;;;;;;4817906;29;20133;-76
2023/03/07 01:54:04;;;;;;;0.20;0.20;;;;;;;;;;4812442;29;20144;-76
2023/03/07 01:56:30;;;;;;;0.20;0.20;;;;;;;;;;4798839;29;20046;-76
2023/03/07 01:58:56;;;;;;;0.20;0.20;;;;;;;;;;4794730;29;20183;-76
2023/03/07 02:01:23;;;;;;;0.20;0.20;;;;;;;;;;4807276;29;20049;-75
2023/03/07 02:03:52;;;;;;;0.20;0.20;;;;;;;;;;4792654;29;20058;-76
2023/03/07 02:06:18;;;;;;;0.20;0.20;;;;;;;;;;4791168;29;20050;-76
2023/03/07 02:08:45;;;;;;;0.20;0.20;;;;;;;;;;4808294;29;20054;-76
2023/03/07 02:11:11;;;;;;;0.20;0.20;;;;;;;;;;4793618;29;20065;-75
2023/03/07 02:13:37;;;;;;;0.20;0.20;;;;;;;;;;4795129;29;20153;-76
2023/03/07 02:16:03;;;;;;;0.10;0.10;;;;;;;;;;4813732;29;20050;-76
2023/03/07 02:18:34;;;;;;;0.20;0.20;;;;;;;;;;4795348;29;20048;-76
2023/03/07 02:21:11;;;;;;;0.20;0.20;;;;;;;;;;4810489;29;20073;-75
2023/03/07 02:23:46;;;;;;;0.20;0.20;;;;;;;;;;4811550;29;20086;-76
2023/03/07 02:26:18;;;;;;;0.20;0.20;;;;;;;;;;4793220;29;20127;-76
2023/03/07 02:28:45;;;;;;;0.20;0.20;;;;;;;;;;4792688;29;20225;-76
2023/03/07 02:31:11;;;;;;;0.20;0.20;;;;;;;;;;4792169;29;20058;-76
2023/03/07 02:33:37;;;;;;;0.20;0.20;;;;;;;;;;4783480;29;20058;-76
2023/03/07 02:36:15;;;;;;;0.10;0.10;;;;;;;;;;4785994;29;20225;-76
2023/03/07 02:38:42;;;;;;;0.20;0.20;;;;;;;;;;4810538;29;20047;-75
2023/03/07 02:41:10;;;;;;;0.10;0.10;;;;;;;;;;4795722;29;20518;-76
2023/03/07 02:43:36;;;;;;;0.20;0.20;;;;;;;;;;4813353;29;20146;-76
2023/03/07 02:46:03;;;;;;;0.20;0.20;;;;;;;;;;4795489;29;20863;-76
2023/03/07 02:48:29;;;;;;;0.20;0.20;;;;;;;;;;4822140;29;20506;-75
2023/03/07 02:50:55;;;;;;;0.20;0.20;;;;;;;;;;4798521;29;20508;-77
2023/03/07 02:53:21;;;;;;;0.20;0.20;;;;;;;;;;4819377;29;20058;-76
2023/03/07 02:55:47;;;;;;;0.20;0.20;;;;;;;;;;4817449;29;20054;-76
2023/03/07 02:58:13;;;;;;;0.20;0.20;;;;;;;;;;4812074;29;20046;-76
2023/03/07 03:00:39;;;;;;;0.20;0.20;;;;;;;;;;4817167;29;20458;-76
2023/03/07 03:03:05;;;;;;;0.20;0.20;;;;;;;;;;4797642;29;20468;-75
2023/03/07 03:05:31;;;;;;;0.20;0.20;;;;;;;;;;4816324;29;20105;-75
2023/03/07 03:07:57;;;;;;;0.20;0.20;;;;;;;;;;4810175;29;20495;-76
2023/03/07 03:10:29;;;;;;;0.10;0.10;;;;;;;;;;4801578;29;20507;-76
2023/03/07 03:12:55;;;;;;;0.20;0.20;;;;;;;;;;4801243;29;20090;-76
2023/03/07 03:15:21;;;;;;;0.10;0.10;;;;;;;;;;4799360;29;20059;-76
2023/03/07 03:17:47;;;;;;;0.20;0.20;;;;;;;;;;4791783;29;20051;-76
2023/03/07 03:20:15;;;;;;;0.20;0.20;;;;;;;;;;4821885;29;20046;-77
2023/03/07 03:22:42;;;;;;;0.20;0.20;;;;;;;;;;4812236;29;20136;-76
2023/03/07 03:25:09;;;;;;;0.20;0.20;;;;;;;;;;4818757;29;20062;-77
2023/03/07 03:27:35;;;;;;;0.20;0.20;;;;;;;;;;4793074;29;20054;-76
2023/03/07 03:30:02;;;;;;;0.10;0.10;;;;;;;;;;4802383;29;20053;-75
2023/03/07 03:32:29;;;;;;;0.20;0.20;;;;;;;;;;4794525;29;20133;-76
2023/03/07 03:34:55;;;;;;;0.20;0.20;;;;;;;;;;4794211;29;20145;-76
2023/03/07 03:37:21;;;;;;;0.20;0.20;;;;;;;;;;4802588;29;20041;-76
2023/03/07 03:39:47;;;;;;;0.10;0.10;;;;;;;;;;4815531;29;20601;-76
2023/03/07 03:42:13;;;;;;;0.13;0.13;;;;;;;;;;4795496;29;20141;-76
2023/03/07 03:44:39;;;;;;;0.13;0.13;;;;;;;;;;4810295;29;20480;-77
2023/03/07 03:47:05;;;;;;;0.20;0.20;;;;;;;;;;4796708;29;20077;-77
2023/03/07 03:49:31;;;;;;;0.20;0.20;;;;;;;;;;4795732;29;20054;-77
2023/03/07 03:52:00;;;;;;;0.10;0.10;;;;;;;;;;4812928;29;20066;-76
2023/03/07 03:54:26;;;;;;;0.20;0.20;;;;;;;;;;4795141;29;20058;-77
2023/03/07 03:56:53;;;;;;;0.20;0.20;;;;;;;;;;4812590;29;20114;-77
2023/03/07 03:59:21;;;;;;;0.20;0.20;;;;;;;;;;4795894;29;20057;-76
2023/03/07 04:01:47;;;;;;;0.20;0.20;;;;;;;;;;4811774;29;20046;-76
2023/03/07 04:04:14;;;;;;;0.20;0.20;;;;;;;;;;4814117;29;20049;-76
2023/03/07 04:06:41;;;;;;;0.20;0.20;;;;;;;;;;4819466;29;20046;-76
2023/03/07 04:09:08;;;;;;;0.20;0.20;;;;;;;;;;4797925;29;20054;-76
2023/03/07 04:11:34;;;;;;;0.10;0.10;;;;;;;;;;4795687;29;20062;-77
2023/03/07 04:14:00;;;;;;;0.20;0.20;;;;;;;;;;4794719;29;20050;-76
2023/03/07 04:16:26;;;;;;;0.20;0.20;;;;;;;;;;4793900;29;20077;-77
2023/03/07 04:18:53;;;;;;;0.20;0.20;;;;;;;;;;4792297;29;20057;-77
2023/03/07 04:21:19;;;;;;;0.20;0.20;;;;;;;;;;4793748;29;20084;-76
2023/03/07 04:23:48;;;;;;;0.20;0.20;;;;;;;;;;4812313;29;20574;-77
2023/03/07 04:26:15;;;;;;;0.20;0.20;;;;;;;;;;4811635;29;20460;-76
2023/03/07 04:28:45;;;;;;;0.20;0.20;;;;;;;;;;4794874;29;20081;-77
2023/03/07 04:31:12;;;;;;;0.20;0.20;;;;;;;;;;4794393;29;20085;-77
2023/03/07 04:33:38;;;;;;;0.20;0.20;;;;;;;;;;4812475;29;20065;-77
2023/03/07 04:36:04;;;;;;;0.20;0.20;;;;;;;;;;4798904;29;20473;-77
2023/03/07 04:38:30;;;;;;;0.20;0.20;;;;;;;;;;4809763;29;20050;-77
2023/03/07 04:40:56;;;;;;;0.20;0.20;;;;;;;;;;4795086;29;20054;-76
2023/03/07 04:43:22;;;;;;;0.20;0.20;;;;;;;;;;4811644;29;20061;-77
2023/03/07 04:45:48;;;;;;;0.20;0.20;;;;;;;;;;4811441;29;20841;-77
2023/03/07 04:48:14;;;;;;;0.20;0.20;;;;;;;;;;4794628;29;20483;-76
2023/03/07 04:50:40;;;;;;;0.20;0.20;;;;;;;;;;4803507;29;20057;-76
2023/03/07 04:53:06;;;;;;;0.20;0.20;;;;;;;;;;4811815;29;20066;-76
2023/03/07 04:55:32;;;;;;;0.20;0.20;;;;;;;;;;4795247;29;20484;-77
2023/03/07 04:58:07;;;;;;;0.20;0.20;;;;;;;;;;4811008;29;20435;-76
2023/03/07 05:00:33;;;;;;;0.20;0.20;;;;;;;;;;4797662;29;20058;-76
2023/03/07 05:03:00;;;;;;;0.20;0.20;;;;;;;;;;4814173;29;20046;-75
2023/03/07 05:05:27;;;;;;;0.20;0.20;;;;;;;;;;4813807;29;20074;-76
2023/03/07 05:07:53;;;;;;;0.20;0.20;;;;;;;;;;4784553;29;20050;-76
2023/03/07 05:10:19;;;;;;;0.20;0.20;;;;;;;;;;4794284;29;20046;-76
2023/03/07 05:12:45;;;;;;;0.10;0.10;;;;;;;;;;4811979;29;20130;-76
2023/03/07 05:15:11;;;;;;;0.20;0.20;;;;;;;;;;4794133;29;20058;-76
2023/03/07 05:17:37;;;;;;;0.20;0.20;;;;;;;;;;4792997;29;20061;-76
2023/03/07 05:20:03;;;;;;;0.20;0.20;;;;;;;;;;4792092;29;20062;-77
2023/03/07 05:22:29;;;;;;;0.20;0.20;;;;;;;;;;4811100;29;20057;-77
2023/03/07 05:24:57;;;;;;;0.20;0.20;;;;;;;;;;4792320;29;20778;-76
2023/03/07 05:27:23;;;;;;;0.20;0.20;;;;;;;;;;4794397;29;20597;-76
2023/03/07 05:29:49;;;;;;;0.15;0.15;;;;;;;;;;4810132;29;20056;-76
2023/03/07 05:32:15;;;;;;;0.20;0.20;;;;;;;;;;4794283;29;20054;-75
2023/03/07 05:34:41;;;;;;;0.20;0.20;;;;;;;;;;4809498;29;20106;-76
2023/03/07 05:37:07;;;;;;;0.20;0.20;;;;;;;;;;4788606;29;20053;-75
2023/03/07 05:39:33;;;;;;;0.20;0.20;;;;;;;;;;4790193;29;20472;-75
2023/03/07 05:42:05;;;;;;;0.20;0.20;;;;;;;;;;4777217;29;20365;-76
2023/03/07 05:44:31;;;;;;;0.20;0.20;;;;;;;;;;4783196;29;20574;-75
2023/03/07 05:46:57;;;;;;;0.20;0.20;;;;;;;;;;4792864;29;20618;-75
2023/03/07 05:49:23;;;;;;;0.20;0.20;;;;;;;;;;4794282;29;20511;-75
2023/03/07 05:51:50;;;;;;;0.20;0.20;;;;;;;;;;4814821;29;20062;-76
2023/03/07 05:54:16;;;;;;;0.20;0.20;;;;;;;;;;4812691;29;20294;-75
2023/03/07 05:56:42;;;;;;;0.20;0.20;;;;;;;;;;4796274;29;20162;-76
2023/03/07 05:59:11;;;;;;;0.20;0.20;;;;;;;;;;4794968;29;20061;-75
2023/03/07 06:01:37;;;;;;;0.20;0.20;;;;;;;;;;4790686;29;20047;-75
2023/03/07 06:04:03;;;;;;;0.20;0.20;;;;;;;;;;4806600;29;20061;-75
2023/03/07 06:06:30;;;;;;;0.20;0.20;;;;;;;;;;4785688;29;20446;-75
2023/03/07 06:08:56;;;;;;;0.20;0.20;;;;;;;;;;4791082;29;20495;-74
2023/03/07 06:11:22;;;;;;;0.20;0.20;;;;;;;;;;4807820;29;20455;-75
2023/03/07 06:13:48;;;;;;;0.10;0.10;;;;;;;;;;4808844;29;20054;-75
2023/03/07 06:16:14;;;;;;;0.20;0.20;;;;;;;;;;4807780;29;20046;-75
2023/03/07 06:18:40;;;;;;;0.20;0.20;;;;;;;;;;4815560;29;20280;-75
2023/03/07 06:21:07;;;;;;;0.20;0.20;;;;;;;;;;4797594;29;20061;-75
2023/03/07 06:23:34;;;;;;;0.20;0.20;;;;;;;;;;4821076;29;20118;-75
2023/03/07 06:26:01;;;;;;;0.20;0.20;;;;;;;;;;4816999;29;20593;-79
2023/03/07 06:28:27;;;;;;;0.20;0.20;;;;;;;;;;4815006;29;20099;-79
2023/03/07 06:30:53;;;;;;;0.20;0.20;;;;;;;;;;4813053;29;20212;-79
2023/03/07 06:33:20;;;;;;;0.20;0.20;;;;;;;;;;4825218;29;20058;-79
2023/03/07 06:35:46;;;;;;;0.20;0.20;;;;;;;;;;4813750;29;20130;-80
2023/03/07 06:38:14;;;;;;;0.20;0.20;;;;;;;;;;4789083;29;20051;-80
2023/03/07 06:40:40;;;;;;;0.15;0.15;;;;;;;;;;4798014;29;20105;-78
2023/03/07 06:43:09;;;;;;;0.20;0.20;;;;;;;;;;4797123;29;20357;-78
2023/03/07 06:45:41;;;;;;;0.20;0.20;;;;;;;;;;4812933;29;20058;-77
2023/03/07 06:48:07;;;;;;;0.20;0.20;;;;;;;;;;4809331;29;20066;-79
2023/03/07 06:50:33;;;;;;;0.20;0.20;;;;;;;;;;4793993;29;20057;-79
2023/03/07 06:52:59;;;;;;;0.20;0.20;;;;;;;;;;4782556;29;20061;-78
2023/03/07 06:55:25;;;;;;;0.20;0.20;;;;;;;;;;4777732;29;20107;-79
2023/03/07 06:57:51;;;;;;;0.20;0.20;;;;;;;;;;4778538;29;20050;-79
2023/03/07 07:00:18;;;;;;;0.20;0.20;;;;;;;;;;4789713;29;20089;-79
2023/03/07 07:02:47;;;;;;;0.10;0.10;;;;;;;;;;4785762;29;20081;-79
2023/03/07 07:05:13;;;;;;;0.20;0.20;;;;;;;;;;4775692;29;20043;-79
2023/03/07 07:07:39;;;;;;;0.20;0.20;;;;;;;;;;4796652;29;20054;-79
2023/03/07 07:10:05;;;;;;;0.20;0.20;;;;;;;;;;4797974;29;20058;-79
2023/03/07 07:12:31;;;;;;;0.20;0.20;;;;;;;;;;4800229;29;20133;-79
2023/03/07 07:15:00;;;;;;;0.20;0.20;;;;;;;;;;4810678;29;20054;-79
2023/03/07 07:17:27;;;;;;;0.20;0.20;;;;;;;;;;4796714;29;20066;-80
2023/03/07 07:19:53;;;;;;;0.10;0.10;;;;;;;;;;4793388;29;20058;-79
2023/03/07 07:22:19;;;;;;;0.20;0.20;;;;;;;;;;4805855;29;20047;-79
2023/03/07 07:24:47;;;;;;;0.20;0.20;;;;;;;;;;4775777;29;20142;-79
2023/03/07 07:27:13;;;;;;;0.20;0.20;;;;;;;;;;4772042;29;20063;-79
2023/03/07 07:29:39;;;;;;;0.20;0.20;;;;;;;;;;4774253;29;20144;-79
2023/03/07 07:32:06;;;;;;;0.20;0.20;;;;;;;;;;4806936;29;20054;-79
2023/03/07 07:34:32;;;;;;;0.20;0.20;;;;;;;;;;4794213;29;20050;-80
2023/03/07 07:36:58;;;;;;;0.20;0.20;;;;;;;;;;4811058;29;20058;-79
2023/03/07 07:39:24;;;;;;;0.20;0.20;;;;;;;;;;4776430;29;20074;-79
2023/03/07 07:41:50;;;;;;;0.20;0.20;;;;;;;;;;4809739;29;20062;-79
2023/03/07 07:44:16;;;;;;;0.20;0.20;;;;;;;;;;4801935;29;20050;-78
2023/03/07 07:46:42;;;;;;;0.20;0.20;;;;;;;;;;4803045;29;21094;-78
2023/03/07 07:49:08;;;;;;;0.20;0.20;;;;;;;;;;4813515;29;20054;-79
2023/03/07 07:51:34;;;;;;;0.20;0.20;;;;;;;;;;4807968;29;20054;-79
2023/03/07 07:54:00;;;;;;;0.20;0.20;;;;;;;;;;4789868;29;20082;-79
2023/03/07 07:56:29;;;;;;;0.20;0.20;;;;;;;;;;4794891;29;20454;-79
2023/03/07 07:58:55;;;;;;;0.10;0.10;;;;;;;;;;4800187;29;20058;-79
2023/03/07 08:01:23;;;;;;;0.20;0.20;;;;;;;;;;4792667;29;20514;-78
2023/03/07 08:03:49;;;;;;;0.20;0.20;;;;;;;;;;4787400;29;20407;-78
2023/03/07 08:06:19;;;;;;;0.20;0.20;;;;;;;;;;4798472;29;20487;-79
2023/03/07 08:08:45;;;;;;;0.15;0.15;;;;;;;;;;4781243;29;20151;-79
2023/03/07 08:11:11;;;;;;;0.20;0.20;;;;;;;;;;4787073;29;20069;-79
2023/03/07 08:13:37;;;;;;;0.10;0.10;;;;;;;;;;4797292;29;20050;-78
2023/03/07 08:16:13;;;;;;;0.20;0.20;;;;;;;;;;4783924;29;20057;-79
2023/03/07 08:18:39;;;;;;;0.20;0.20;;;;;;;;;;4791091;29;20695;-78
2023/03/07 08:21:07;;;;;;;0.10;0.10;;;;;;;;;;4793260;29;20868;-79
2023/03/07 08:23:33;;;;;;;0.10;0.10;;;;;;;;;;4777883;29;20272;-79
2023/03/07 08:26:03;;;;;;;0.20;0.20;;;;;;;;;;4784312;29;20065;-78
2023/03/07 08:28:29;;;;;;;0.20;0.20;;;;;;;;;;4779298;29;20086;-79
2023/03/07 08:30:55;;;;;;;0.15;0.15;;;;;;;;;;4805973;29;20051;-79
2023/03/07 08:33:21;;;;;;;0.20;0.20;;;;;;;;;;4791858;29;20065;-80
2023/03/07 08:35:47;;;;;;;0.20;0.20;;;;;;;;;;4782996;29;20050;-81
2023/03/07 08:38:13;;;;;;;0.20;0.20;;;;;;;;;;4798904;29;20102;-80
2023/03/07 08:40:42;;;;;;;0.20;0.20;;;;;;;;;;4777204;29;20097;-80
2023/03/07 08:43:08;;;;;;;0.20;0.20;;;;;;;;;;4782656;29;20469;-79
2023/03/07 08:45:34;;;;;;;0.20;0.20;;;;;;;;;;4784774;29;20050;-77
2023/03/07 08:48:00;;;;;;;0.10;0.10;;;;;;;;;;4803871;29;20118;-79
2023/03/07 08:50:27;;;;;;;0.10;0.10;;;;;;;;;;4794804;29;20138;-78
2023/03/07 08:52:53;;;;;;;0.20;0.20;;;;;;;;;;4800682;29;20146;-78
2023/03/07 08:55:19;;;;;;;0.20;0.20;;;;;;;;;;4786491;29;20434;-80
2023/03/07 08:57:46;;;;;;;0.20;0.20;;;;;;;;;;4791174;29;20055;-77
2023/03/07 09:00:12;;;;;;;0.20;0.20;;;;;;;;;;4798047;29;20050;-80
2023/03/07 09:02:38;;;;;;;0.20;0.20;;;;;;;;;;4778238;29;20050;-80
2023/03/07 09:05:05;;;;;;;0.20;0.20;;;;;;;;;;4805259;29;20141;-79
2023/03/07 09:07:31;;;;;;;0.10;0.10;;;;;;;;;;4807632;29;20053;-79
2023/03/07 09:09:57;;;;;;;0.20;0.20;;;;;;;;;;4792509;29;20055;-79
2023/03/07 09:12:23;;;;;;;0.20;0.20;;;;;;;;;;4791895;29;20125;-79
2023/03/07 09:14:52;;;;;;;0.20;0.20;;;;;;;;;;4807473;29;20114;-79
2023/03/07 09:17:18;;;;;;;0.10;0.10;;;;;;;;;;4797153;29;20538;-79
2023/03/07 09:19:49;;;;;;;0.20;0.20;;;;;;;;;;4776152;29;20795;-79
2023/03/07 09:22:15;;;;;;;0.17;0.17;;;;;;;;;;4777141;29;20478;-79
2023/03/07 09:24:45;;;;;;;0.20;0.20;;;;;;;;;;4794146;29;20064;-79
2023/03/07 09:27:11;;;;;;;0.20;0.20;;;;;;;;;;4795877;29;20106;-79
2023/03/07 09:29:40;;;;;;;0.20;0.20;;;;;;;;;;4811434;29;20060;-79
2023/03/07 09:32:06;;;;;;;0.20;0.20;;;;;;;;;;4806911;29;20075;-79
2023/03/07 09:34:32;;;;;;;0.20;0.20;;;;;;;;;;4799469;29;20454;-79
2023/03/07 09:36:58;;;;;;;0.20;0.20;;;;;;;;;;4788129;29;20050;-79
2023/03/07 09:39:24;;;;;;;0.20;0.20;;;;;;;;;;4801533;29;20070;-78
2023/03/07 09:41:50;;;;;;;0.20;0.20;;;;;;;;;;4782003;29;20043;-79
2023/03/07 09:44:35;;;;;;;0.20;0.20;;;;;;;;;;4798672;29;21518;-81
2023/03/07 09:47:01;;;;;;;0.10;0.10;;;;;;;;;;4797547;29;20047;-80
2023/03/07 09:49:31;;;;;;;0.15;0.15;;;;;;;;;;4800835;29;20461;-79
2023/03/07 09:51:58;;;;;;;0.20;0.20;;;;;;;;;;4786073;29;20141;-78
2023/03/07 09:54:28;;;;;;;0.20;0.20;;;;;;;;;;4783816;29;20050;-78
2023/03/07 09:56:58;;;;;;;0.20;0.20;;;;;;;;;;4802754;29;20126;-80
2023/03/07 09:59:24;;;;;;;0.20;0.20;;;;;;;;;;4803341;29;20089;-81
2023/03/07 10:02:10;;;;;;;0.20;0.20;;;;;;;;;;4795988;29;20400;-81
2023/03/07 10:04:49;;;;;;;0.20;0.20;;;;;;;;;;4788564;29;20042;-80
2023/03/07 10:07:16;;;;;;;0.20;0.20;;;;;;;;;;4790586;29;20403;-79
2023/03/07 10:09:43;;;;;;;0.20;0.20;;;;;;;;;;4807637;29;20458;-79
2023/03/07 10:12:19;;;;;;;0.20;0.20;;;;;;;;;;4781421;29;20043;-78
2023/03/07 10:15:05;;;;;;;0.20;0.20;;;;;;;;;;4795503;29;20621;-78
2023/03/07 10:17:43;;;;;;;0.10;0.10;;;;;;;;;;4783587;29;20094;-78
2023/03/07 10:20:18;;;;;;;0.10;0.10;;;;;;;;;;4793438;29;20493;-79
2023/03/07 10:23:03;;;;;;;0.20;0.20;;;;;;;;;;4799969;29;20058;-79
2023/03/07 10:25:59;;;;;;;0.20;0.20;;;;;;;;;;4800616;29;20098;-79
2023/03/07 10:28:26;;;;;;;0.20;0.20;;;;;;;;;;4780812;29;20062;-79
2023/03/07 10:30:56;;;;;;;0.20;0.20;;;;;;;;;;4803456;29;20242;-79
2023/03/07 10:33:22;;;;;;;0.20;0.20;;;;;;;;;;4779029;29;20423;-79
2023/03/07 10:36:02;;;;;;;0.10;0.10;;;;;;;;;;4776208;29;20372;-79
2023/03/07 10:38:32;;;;;;;0.20;0.20;;;;;;;;;;4778619;29;20047;-78
2023/03/07 10:41:01;;;;;;;0.20;0.20;;;;;;;;;;4793576;29;20043;-79
2023/03/07 10:43:29;;;;;;;0.20;0.20;;;;;;;;;;4795335;29;20444;-78
2023/03/07 10:46:13;;;;;;;0.20;0.20;;;;;;;;;;4798099;29;20039;-81
2023/03/07 10:48:40;;;;;;;0.20;0.20;;;;;;;;;;4777614;29;20084;-76
2023/03/07 10:51:29;;;;;;;0.10;0.10;;;;;;;;;;4781326;29;20042;-76
2023/03/07 10:54:08;;;;;;;0.20;0.20;;;;;;;;;;4778359;29;20484;-76
2023/03/07 10:56:34;;;;;;;0.20;0.20;;;;;;;;;;4776900;29;20047;-76
2023/03/07 10:59:00;;;;;;;0.10;0.10;;;;;;;;;;4799526;29;20042;-76
2023/03/07 11:01:26;;;;;;;0.20;0.20;;;;;;;;;;4783201;29;20071;-77
2023/03/07 11:04:03;;;;;;;0.20;0.20;;;;;;;;;;4793977;29;20083;-76
2023/03/07 11:06:38;;;;;;;0.20;0.20;;;;;;;;;;4820269;29;20093;-76
2023/03/07 11:09:09;;;;;;;0.20;0.20;;;;;;;;;;4800901;29;20086;-76
2023/03/07 11:11:36;;;;;;;0.17;0.17;;;;;;;;;;4790745;29;20494;-76
2023/03/07 11:14:10;;;;;;;0.20;0.20;;;;;;;;;;4795253;29;20567;-74
2023/03/07 11:16:40;;;;;;;0.10;0.10;;;;;;;;;;4796832;29;20046;-74
2023/03/07 11:19:23;;;;;;;0.13;0.13;;;;;;;;;;4801516;29;20047;-75
2023/03/07 11:21:53;;;;;;;0.20;0.20;;;;;;;;;;4787939;29;20046;-75
2023/03/07 11:24:30;;;;;;;0.20;0.20;;;;;;;;;;4805196;29;20090;-75
2023/03/07 11:26:59;;;;;;;0.20;0.20;;;;;;;;;;4786425;29;20054;-75
2023/03/07 11:29:28;;;;;;;0.20;0.20;;;;;;;;;;4804661;29;20385;-75
2023/03/07 11:32:17;;;;;;;0.20;0.20;;;;;;;;;;4787651;29;20051;-74
2023/03/07 11:34:48;;;;;;;0.20;0.20;;;;;;;;;;4809640;29;20054;-75
2023/03/07 11:37:24;;;;;;;0.17;0.17;;;;;;;;;;4820396;29;20402;-75
2023/03/07 11:40:02;;;;;;;0.20;0.20;;;;;;;;;;4788142;29;20054;-75
2023/03/07 11:42:32;;;;;;;0.20;0.20;;;;;;;;;;4780752;29;20048;-76
2023/03/07 11:45:03;;;;;;;0.20;0.20;;;;;;;;;;4786061;30;20491;-75
2023/03/07 11:47:51;;;;;;;0.20;0.20;;;;;;;;;;4796844;29;20051;-75
2023/03/07 11:50:25;;;;;;;0.15;0.15;;;;;;;;;;4803825;29;20058;-75
2023/03/07 11:53:07;;;;;;;0.20;0.20;;;;;;;;;;4784877;29;20059;-75
2023/03/07 11:55:51;;;;;;;0.10;0.10;;;;;;;;;;4783959;29;20496;-76
2023/03/07 11:58:36;;;;;;;0.20;0.20;;;;;;;;;;4788089;29;20054;-75
2023/03/07 12:01:20;;;;;;;0.20;0.20;;;;;;;;;;4770683;30;20054;-75
2023/03/07 12:04:05;;;;;;;0.20;0.20;;;;;;;;;;4795511;29;20437;-75
2023/03/07 12:06:36;;;;;;;0.20;0.20;;;;;;;;;;4821225;29;20046;-76
2023/03/07 12:09:38;;;;;;;0.20;0.20;;;;;;;;;;4792871;29;20173;-75
2023/03/07 12:12:04;;;;;;;0.20;0.20;;;;;;;;;;4739775;30;20051;-76
2023/03/07 12:14:37;;;;;;;0.20;0.20;;;;;;;;;;4776258;29;20531;-77
2023/03/07 12:17:15;;;;;;;0.10;0.10;;;;;;;;;;4817565;29;20070;-77
2023/03/07 12:20:01;;;;;;;0.20;0.20;;;;;;;;;;4799085;29;20050;-76
2023/03/07 12:22:39;;;;;;;0.20;0.20;;;;;;;;;;4795531;29;20099;-76
2023/03/07 12:25:38;;;;;;;0.20;0.20;;;;;;;;;;4791599;29;20518;-76
2023/03/07 12:28:16;;;;;;;0.20;0.20;;;;;;;;;;4765967;29;20074;-77
2023/03/07 12:30:54;;;;;;;0.20;0.20;;;;;;;;;;4789676;29;20167;-77
2023/03/07 12:33:26;;;;;;;0.20;0.20;;;;;;;;;;4770321;30;20055;-77
2023/03/07 12:35:55;;;;;;;0.20;0.20;;;;;;;;;;4768951;30;20086;-77
2023/03/07 12:38:46;;;;;;;0.17;0.17;;;;;;;;;;4792251;29;20137;-77
2023/03/07 12:41:32;;;;;;;0.20;0.20;;;;;;;;;;4805505;29;20057;-77
2023/03/07 12:44:01;;;;;;;0.10;0.10;;;;;;;;;;4805753;29;20449;-77
2023/03/07 12:46:38;;;;;;;0.10;0.10;;;;;;;;;;4804996;29;20057;-77
2023/03/07 12:49:04;;;;;;;0.20;0.20;;;;;;;;;;4805606;29;20316;-76
2023/03/07 12:51:37;;;;;;;0.20;0.20;;;;;;;;;;4804859;29;20582;-76
2023/03/07 12:54:08;;;;;;;0.20;0.20;;;;;;;;;;4822518;29;20057;-76
2023/03/07 12:56:52;;;;;;;0.20;0.20;;;;;;;;;;4806084;29;20051;-77
2023/03/07 12:59:22;;;;;;;0.10;0.10;;;;;;;;;;4819728;29;20050;-76
2023/03/07 13:01:58;;;;;;;0.20;0.20;;;;;;;;;;4798937;29;20058;-76
2023/03/07 13:04:27;;;;;;;0.20;0.20;;;;;;;;;;4803843;29;20062;-77
2023/03/07 13:06:55;;;;;;;0.20;0.20;;;;;;;;;;4838056;29;20048;-76
2023/03/07 13:09:23;;;;;;;0.10;0.10;;;;;;;;;;4804445;29;20051;-76
2023/03/07 13:12:22;;;;;;;0.20;0.20;;;;;;;;;;4787862;29;20055;-77
2023/03/07 13:14:51;;;;;;;0.10;0.10;;;;;;;;;;4787432;29;20466;-75
2023/03/07 13:17:26;;;;;;;0.20;0.20;;;;;;;;;;4787090;29;20055;-76
2023/03/07 13:19:53;;;;;;;0.20;0.20;;;;;;;;;;4785906;29;20061;-76
2023/03/07 13:22:22;;;;;;;0.20;0.20;;;;;;;;;;4797814;29;20082;-76
2023/03/07 13:24:52;;;;;;;0.20;0.20;;;;;;;;;;4820328;29;20050;-75
2023/03/07 13:27:27;;;;;;;0.17;0.17;;;;;;;;;;4805143;29;20121;-75
2023/03/07 13:30:02;;;;;;;0.17;0.17;;;;;;;;;;4802666;29;20049;-74
2023/03/07 13:32:50;;;;;;;0.20;0.20;;;;;;;;;;4787657;29;20067;-76
2023/03/07 13:35:28;;;;;;;0.20;0.20;;;;;;;;;;4801555;29;20047;-75
2023/03/07 13:37:57;;;;;;;0.10;0.10;;;;;;;;;;4802772;29;20126;-75
2023/03/07 13:40:33;;;;;;;0.20;0.20;;;;;;;;;;4802735;29;20464;-76
2023/03/07 13:42:59;;;;;;;0.10;0.10;;;;;;;;;;4770351;29;20043;-76
2023/03/07 13:45:37;;;;;;;0.20;0.20;;;;;;;;;;4783936;29;20051;-75
2023/03/07 13:48:23;;;;;;;0.10;0.10;;;;;;;;;;4788356;29;20050;-76
2023/03/07 13:50:55;;;;;;;0.20;0.20;;;;;;;;;;4797714;29;20104;-75
2023/03/07 13:53:31;;;;;;;0.20;0.20;;;;;;;;;;4787249;29;20459;-75
2023/03/07 13:56:03;;;;;;;0.20;0.20;;;;;;;;;;4785714;29;20133;-76
2023/03/07 13:58:34;;;;;;;0.20;0.20;;;;;;;;;;4786483;29;20054;-76
2023/03/07 14:01:03;;;;;;;0.20;0.20;;;;;;;;;;4784568;29;20082;-75
2023/03/07 14:03:48;;;;;;;0.20;0.20;;;;;;;;;;4787289;29;20061;-76
2023/03/07 14:06:19;;;;;;;0.20;0.20;;;;;;;;;;4785429;29;20504;-75
2023/03/07 14:08:47;;;;;;;0.20;0.20;;;;;;;;;;4803330;29;20049;-75
2023/03/07 14:11:21;;;;;;;0.20;0.20;;;;;;;;;;4785923;29;20058;-75
2023/03/07 14:14:00;;;;;;;0.20;0.20;;;;;;;;;;4802534;29;20194;-76
2023/03/07 14:16:29;;;;;;;0.20;0.20;;;;;;;;;;4786861;29;20270;-75
2023/03/07 14:19:18;;;;;;;0.20;0.20;;;;;;;;;;4802293;29;20125;-75
2023/03/07 14:21:47;;;;;;;0.20;0.20;;;;;;;;;;4765220;30;20091;-76
2023/03/07 14:24:22;;;;;;;0.20;0.20;;;;;;;;;;4769442;30;20139;-76
2023/03/07 14:26:54;;;;;;;0.15;0.15;;;;;;;;;;4792677;29;20130;-76
2023/03/07 14:29:29;;;;;;;0.10;0.10;;;;;;;;;;4803135;29;20053;-76
2023/03/07 14:31:58;;;;;;;;;;;;;;;;;;4787419;29;20407;-76
2023/03/07 14:34:24;;;;;;;0.20;0.20;;;;;;;;;;4800513;29;19921;-76
2023/03/07 14:37:15;;;;;;;0.20;0.20;;;;;;;;;;4804023;29;20104;-75
2023/03/07 14:39:53;;;;;;;0.20;0.20;;;;;;;;;;4789346;29;20120;-76
2023/03/07 14:42:22;;;;;;;0.20;0.20;;;;;;;;;;4805611;29;20488;-76
2023/03/07 14:45:15;;;;;;;0.20;0.20;;;;;;;;;;4783067;29;20069;-76
2023/03/07 14:47:51;;;;;;;0.13;0.13;;;;;;;;;;4785424;30;20094;-76
2023/03/07 14:50:19;;;;;;;0.10;0.10;;;;;;;;;;4785841;30;20055;-76
2023/03/07 14:52:46;;;;;;;0.20;0.20;;;;;;;;;;4786711;29;20056;-76
2023/03/07 14:55:15;;;;;;;0.20;0.20;;;;;;;;;;4789061;29;20043;-75
2023/03/07 14:57:48;;;;;;;0.20;0.20;;;;;;;;;;4779085;29;20111;-76